Terminal Aerodrome Forecast
Issued by NWS

Home | Current Version | Previous Version | Graphics & Text | Print | Product List | Glossary On
Versions: 1 2 3 4 5 6 7 8 9 10 11 12 13 14 15
000
FTUS43 KMPX 210500
TAFAXN
TAF
KAXN 210520Z 2106/2206 18007KT P6SM SCT200
     FM211500 18015G22KT P6SM SCT010 BKN025
     FM220000 20011KT P6SM SCT005 OVC010=

USA.gov is the U.S. government's official web portal to all federal, state and local government web resources and services.